createdAt,value
2023-11-14T00:01:25.229Z,97781.56
2023-11-14T00:03:52.390Z,97797.22
2023-11-14T00:06:19.122Z,97805.56
2023-11-14T00:08:46.683Z,97806.78
2023-11-14T00:11:13.315Z,97811.78
2023-11-14T00:13:39.983Z,97816.13
2023-11-14T00:16:07.156Z,97811.94
2023-11-14T00:18:33.883Z,97807.75
2023-11-14T00:21:00.478Z,97810.88
2023-11-14T00:23:27.070Z,97813.78
2023-11-14T00:25:53.588Z,97819.13
2023-11-14T00:28:20.189Z,97809.47
2023-11-14T00:30:46.834Z,97818.66
2023-11-14T00:33:13.619Z,97811.53
2023-11-14T00:35:40.217Z,97816.97
2023-11-14T00:38:06.885Z,97829.44
2023-11-14T00:40:33.590Z,97820.25
2023-11-14T00:43:00.211Z,97822.28
2023-11-14T00:45:28.864Z,97828.72
2023-11-14T00:47:55.969Z,97822.09
2023-11-14T00:50:22.803Z,97835.88
2023-11-14T00:52:49.405Z,97807.13
2023-11-14T00:55:16.049Z,97815.63
2023-11-14T00:57:42.674Z,97812.50
2023-11-14T01:00:11.875Z,97821.41
2023-11-14T01:02:40.553Z,97821.06
2023-11-14T01:05:07.755Z,97825.19
2023-11-14T01:07:34.494Z,97832.06
2023-11-14T01:10:01.275Z,97826.91
2023-11-14T01:12:27.827Z,97826.66
2023-11-14T01:14:54.377Z,97844.13
2023-11-14T01:17:22.531Z,97851.22
2023-11-14T01:19:51.372Z,97853.97
2023-11-14T01:22:19.001Z,97854.22
2023-11-14T01:24:45.682Z,97854.22
2023-11-14T01:27:12.282Z,97851.75
2023-11-14T01:29:39.186Z,97857.97
2023-11-14T01:32:07.709Z,97852.56
2023-11-14T01:34:36.503Z,97851.97
2023-11-14T01:37:03.338Z,97854.47
2023-11-14T01:39:32.642Z,97850.31
2023-11-14T01:41:59.384Z,97854.72
2023-11-14T01:44:26.344Z,97844.56
2023-11-14T01:46:56.923Z,97853.13
2023-11-14T01:49:24.880Z,97855.00
2023-11-14T01:51:51.780Z,97868.09
2023-11-14T01:54:18.827Z,97866.56
2023-11-14T01:56:45.793Z,97847.00
2023-11-14T01:59:12.479Z,97843.25
2023-11-14T02:01:39.223Z,97845.59
2023-11-14T02:04:14.333Z,97843.84
2023-11-14T02:06:40.896Z,97847.81
2023-11-14T02:09:10.539Z,97850.31
2023-11-14T02:11:37.345Z,97845.19
2023-11-14T02:14:04.072Z,97846.88
2023-11-14T02:16:46.762Z,97840.19
2023-11-14T02:19:14.612Z,97839.13
2023-11-14T02:21:42.938Z,97844.34
2023-11-14T02:24:14.125Z,97846.22
2023-11-14T02:26:41.403Z,97841.25
2023-11-14T02:29:07.952Z,97852.53
2023-11-14T02:31:34.601Z,97864.19
2023-11-14T02:34:01.224Z,97853.72
2023-11-14T02:36:30.736Z,97861.69
2023-11-14T02:38:57.255Z,97872.53
2023-11-14T02:41:23.784Z,97863.34
2023-11-14T02:43:50.335Z,97864.63
2023-11-14T02:46:16.910Z,97861.91
2023-11-14T02:48:43.712Z,97863.34
2023-11-14T02:51:10.294Z,97860.88
2023-11-14T02:53:36.835Z,97860.88
2023-11-14T02:56:03.598Z,97865.06
2023-11-14T02:58:30.194Z,97865.88
2023-11-14T03:00:56.828Z,97871.69
2023-11-14T03:03:23.558Z,97882.31
2023-11-14T03:05:50.329Z,97872.50
2023-11-14T03:08:17.048Z,97881.31
2023-11-14T03:10:44.678Z,97886.13
2023-11-14T03:13:11.820Z,97888.41
2023-11-14T03:15:38.508Z,97885.06
2023-11-14T03:18:05.458Z,97878.84
2023-11-14T03:20:34.789Z,97877.41
2023-11-14T03:23:03.246Z,97876.78
2023-11-14T03:25:30.070Z,97871.38
2023-11-14T03:27:59.055Z,97877.19
2023-11-14T03:30:25.650Z,97882.59
2023-11-14T03:32:52.577Z,97883.91
2023-11-14T03:35:19.203Z,97883.03
2023-11-14T03:37:45.916Z,97888.00
2023-11-14T03:40:13.159Z,97889.06
2023-11-14T03:42:39.727Z,97888.22
2023-11-14T03:45:06.656Z,97897.19
2023-11-14T03:47:33.268Z,97910.72
2023-11-14T03:49:59.869Z,97908.03
2023-11-14T03:52:27.027Z,97897.41
2023-11-14T03:54:53.978Z,97916.34
2023-11-14T03:57:22.380Z,97910.94
2023-11-14T03:59:49.054Z,97911.56
2023-11-14T04:02:15.620Z,97926.16
2023-11-14T04:04:42.277Z,97928.03
2023-11-14T04:07:08.841Z,97918.41
2023-11-14T04:09:35.362Z,97921.97
2023-11-14T04:12:03.532Z,97932.16
2023-11-14T04:14:30.082Z,97929.91
2023-11-14T04:16:57.600Z,97940.13
2023-11-14T04:19:24.342Z,97931.34
2023-11-14T04:21:50.882Z,97934.47
2023-11-14T04:24:17.385Z,97936.31
2023-11-14T04:26:44.043Z,97949.88
2023-11-14T04:29:10.676Z,97948.00
2023-11-14T04:31:37.621Z,97960.13
2023-11-14T04:34:04.254Z,97955.13
2023-11-14T04:36:30.915Z,97951.75
2023-11-14T04:38:58.201Z,97938.22
2023-11-14T04:41:24.827Z,97930.91
2023-11-14T04:43:51.379Z,97940.69
2023-11-14T04:46:18.126Z,97937.50
2023-11-14T04:48:44.755Z,97922.28
2023-11-14T04:51:11.298Z,97935.19
2023-11-14T04:53:37.858Z,97951.81
2023-11-14T04:56:04.795Z,97952.88
2023-11-14T04:58:33.423Z,97948.22
2023-11-14T05:01:01.444Z,97945.41
2023-11-14T05:03:28.184Z,97947.09
2023-11-14T05:05:54.756Z,97940.31
2023-11-14T05:08:21.392Z,97941.72
2023-11-14T05:10:47.981Z,97945.59
2023-11-14T05:13:15.070Z,97933.94
2023-11-14T05:15:41.603Z,97934.28
2023-11-14T05:18:09.583Z,97952.31
2023-11-14T05:20:36.202Z,97949.84
2023-11-14T05:23:02.759Z,97951.25
2023-11-14T05:25:29.811Z,97951.72
2023-11-14T05:27:56.335Z,97956.03
2023-11-14T05:30:22.854Z,97960.03
2023-11-14T05:32:49.564Z,97961.38
2023-11-14T05:35:17.710Z,97963.56
2023-11-14T05:37:45.502Z,97945.22
2023-11-14T05:40:13.555Z,97950.47
2023-11-14T05:42:40.995Z,97944.28
2023-11-14T05:45:08.920Z,97949.91
2023-11-14T05:47:35.822Z,97950.38
2023-11-14T05:50:04.960Z,97952.06
2023-11-14T05:52:31.886Z,97960.63
2023-11-14T05:54:58.786Z,97963.97
2023-11-14T05:57:25.454Z,97965.31
2023-11-14T05:59:52.628Z,97949.06
2023-11-14T06:02:19.369Z,97950.41
2023-11-14T06:04:46.543Z,97958.53
2023-11-14T06:07:13.189Z,97961.22
2023-11-14T06:09:39.754Z,97958.28
2023-11-14T06:12:07.293Z,97963.03
2023-11-14T06:14:34.026Z,97957.06
2023-11-14T06:17:00.649Z,97948.84
2023-11-14T06:19:29.158Z,97956.13
2023-11-14T06:21:55.677Z,97955.75
2023-11-14T06:24:22.200Z,97944.84
2023-11-14T06:26:48.731Z,97941.88
2023-11-14T06:29:15.376Z,97950.41
2023-11-14T06:31:45.476Z,97954.63
2023-11-14T06:34:13.497Z,97942.72
2023-11-14T06:36:40.679Z,97949.34
2023-11-14T06:39:07.216Z,97948.75
2023-11-14T06:41:33.875Z,97951.22
2023-11-14T06:44:00.535Z,97955.56
2023-11-14T06:46:27.208Z,97946.53
2023-11-14T06:48:53.760Z,97959.78
2023-11-14T06:51:20.447Z,97959.19
2023-11-14T06:53:50.246Z,97959.69
2023-11-14T06:56:16.886Z,97958.00
2023-11-14T06:58:43.518Z,97945.09
2023-11-14T07:01:13.527Z,97963.03
2023-11-14T07:03:41.153Z,97958.06
2023-11-14T07:06:07.881Z,97951.56
2023-11-14T07:08:34.961Z,97954.34
2023-11-14T07:11:01.628Z,97961.16
2023-11-14T07:13:31.206Z,97969.28
2023-11-14T07:15:57.853Z,97959.31
2023-11-14T07:18:24.449Z,97971.44
2023-11-14T07:20:51.059Z,97972.13
2023-11-14T07:23:19.275Z,97963.78
2023-11-14T07:25:45.965Z,97969.00
2023-11-14T07:28:13.453Z,97969.25
2023-11-14T07:30:40.093Z,97967.63
2023-11-14T07:33:06.698Z,97972.06
2023-11-14T07:35:38.253Z,97974.50
2023-11-14T07:38:06.190Z,97974.34
2023-11-14T07:40:33.576Z,97967.25
2023-11-14T07:43:04.623Z,97983.34
2023-11-14T07:45:31.268Z,97978.38
2023-11-14T07:47:57.905Z,97984.84
2023-11-14T07:50:24.841Z,97984.03
2023-11-14T07:52:52.206Z,97980.03
2023-11-14T07:55:18.916Z,97979.06
2023-11-14T07:57:45.481Z,97984.47
2023-11-14T08:00:14.880Z,97992.63
2023-11-14T08:02:42.484Z,97994.88
2023-11-14T08:05:09.922Z,97988.25
2023-11-14T08:07:36.826Z,97991.56
2023-11-14T08:10:03.644Z,97985.69
2023-11-14T08:12:30.261Z,97989.44
2023-11-14T08:14:56.826Z,97976.09
2023-11-14T08:17:23.422Z,97980.53
2023-11-14T08:19:51.105Z,97998.53
2023-11-14T08:22:17.936Z,97987.34
2023-11-14T08:24:44.460Z,97995.41
2023-11-14T08:27:11.542Z,97994.41
2023-11-14T08:29:38.946Z,97971.75
2023-11-14T08:32:06.699Z,97979.13
2023-11-14T08:34:34.555Z,97969.75
2023-11-14T08:37:01.100Z,97974.28
2023-11-14T08:39:30.127Z,97971.72
2023-11-14T08:41:57.177Z,97963.50
2023-11-14T08:44:24.875Z,97972.63
2023-11-14T08:46:51.745Z,97978.72
2023-11-14T08:49:18.701Z,97981.88
2023-11-14T08:51:45.541Z,97994.38
2023-11-14T08:54:12.541Z,97989.94
2023-11-14T08:56:39.220Z,98008.38
2023-11-14T08:59:05.795Z,98007.69
2023-11-14T09:01:32.407Z,98001.28
2023-11-14T09:03:58.945Z,98005.25
2023-11-14T09:06:25.492Z,98016.38
2023-11-14T09:08:53.212Z,98015.31
2023-11-14T09:11:21.041Z,98033.91
2023-11-14T09:13:49.029Z,98023.88
2023-11-14T09:16:16.788Z,98027.50
2023-11-14T09:18:43.685Z,98020.94
2023-11-14T09:21:10.409Z,98057.44
2023-11-14T09:23:37.359Z,98064.38
2023-11-14T09:26:06.650Z,98067.47
2023-11-14T09:28:33.426Z,98076.66
2023-11-14T09:31:00.027Z,98054.75
2023-11-14T09:33:26.584Z,98046.94
2023-11-14T09:35:53.978Z,98062.06
2023-11-14T09:38:20.604Z,98035.34
2023-11-14T09:40:47.281Z,98030.31
2023-11-14T09:43:13.953Z,98029.84
2023-11-14T09:45:42.315Z,98008.59
2023-11-14T09:48:11.534Z,98015.25
2023-11-14T09:50:42.172Z,98004.72
2023-11-14T09:53:08.903Z,98020.22
2023-11-14T09:55:35.490Z,98015.91
2023-11-14T09:58:03.010Z,98015.69
2023-11-14T10:00:30.978Z,98003.66
2023-11-14T10:02:58.540Z,98000.69
2023-11-14T10:05:25.401Z,98006.22
2023-11-14T10:07:53.076Z,97992.69
2023-11-14T10:10:23.147Z,98004.41
2023-11-14T10:12:51.712Z,98000.81
2023-11-14T10:15:32.411Z,98004.97
2023-11-14T10:17:59.871Z,98016.44
2023-11-14T10:20:47.360Z,98021.09
2023-11-14T10:23:24.499Z,98027.91
2023-11-14T10:26:04.928Z,98009.28
2023-11-14T10:28:31.684Z,98012.25
2023-11-14T10:31:15.242Z,98018.56
2023-11-14T10:33:44.025Z,98024.69
2023-11-14T10:36:12.223Z,98037.44
2023-11-14T10:38:38.966Z,98034.31
2023-11-14T10:41:05.617Z,98024.91
2023-11-14T10:43:35.829Z,98022.16
2023-11-14T10:46:09.207Z,98012.00
2023-11-14T10:48:36.177Z,98017.34
2023-11-14T10:51:08.165Z,98006.66
2023-11-14T10:53:35.284Z,97996.78
2023-11-14T10:56:06.353Z,98001.59
2023-11-14T10:58:35.575Z,98005.19
2023-11-14T11:01:04.277Z,98007.59
2023-11-14T11:03:31.948Z,98021.09
2023-11-14T11:05:58.563Z,98015.53
2023-11-14T11:08:25.543Z,98007.69
2023-11-14T11:10:52.463Z,98013.91
2023-11-14T11:13:22.663Z,97981.81
2023-11-14T11:15:51.257Z,97989.38
2023-11-14T11:18:39.796Z,97983.75
2023-11-14T11:21:14.298Z,97988.28
2023-11-14T11:24:14.848Z,97988.63
2023-11-14T11:27:11.713Z,97995.69
2023-11-14T11:30:00.616Z,97992.72
2023-11-14T11:32:28.327Z,98006.69
2023-11-14T11:35:25.811Z,98009.78
2023-11-14T11:37:57.827Z,97999.25
2023-11-14T11:40:27.041Z,98038.06
2023-11-14T11:43:00.066Z,98026.28
2023-11-14T11:45:30.275Z,98037.00
2023-11-14T11:47:58.834Z,98027.34
2023-11-14T11:50:27.678Z,98017.47
2023-11-14T11:53:08.609Z,98037.31
2023-11-14T11:55:37.163Z,98044.19
2023-11-14T11:58:06.965Z,98036.25
2023-11-14T12:00:34.025Z,98033.75
2023-11-14T12:03:02.582Z,98018.97
2023-11-14T12:05:30.792Z,98018.09
2023-11-14T12:08:00.644Z,98013.91
2023-11-14T12:10:27.927Z,98023.13
2023-11-14T12:12:58.371Z,98017.44
2023-11-14T12:15:26.350Z,98011.66
2023-11-14T12:17:54.961Z,98003.66
2023-11-14T12:20:23.261Z,98002.47
2023-11-14T12:22:53.951Z,97992.19
2023-11-14T12:25:21.802Z,97999.22
2023-11-14T12:27:50.580Z,98009.69
2023-11-14T12:30:19.148Z,97990.59
2023-11-14T12:32:46.303Z,97981.91
2023-11-14T12:35:13.139Z,97995.16
2023-11-14T12:37:39.744Z,98001.72
2023-11-14T12:40:10.322Z,98000.03
2023-11-14T12:42:38.156Z,97989.78
2023-11-14T12:45:08.938Z,98010.84
2023-11-14T12:47:42.204Z,97974.41
2023-11-14T12:50:13.817Z,97980.53
2023-11-14T12:52:41.823Z,97964.75
2023-11-14T12:55:08.807Z,97977.47
2023-11-14T12:57:35.567Z,97980.81
2023-11-14T13:00:02.286Z,97978.41
2023-11-14T13:02:29.142Z,97986.72
2023-11-14T13:04:55.816Z,97988.59
2023-11-14T13:07:22.365Z,97979.44
2023-11-14T13:09:48.932Z,97990.66
2023-11-14T13:12:15.480Z,97995.00
2023-11-14T13:14:43.034Z,98000.69
2023-11-14T13:17:10.255Z,97996.50
2023-11-14T13:19:40.430Z,97989.81
2023-11-14T13:22:10.820Z,97989.22
2023-11-14T13:24:37.816Z,97983.34
2023-11-14T13:27:04.407Z,97979.38
2023-11-14T13:29:30.992Z,97963.31
2023-11-14T13:31:57.745Z,97986.06
2023-11-14T13:34:35.605Z,97968.53
2023-11-14T13:37:03.227Z,97969.56
2023-11-14T13:39:29.721Z,97958.72
2023-11-14T13:41:56.322Z,97955.16
2023-11-14T13:44:23.239Z,97934.88
2023-11-14T13:46:50.103Z,97948.47
2023-11-14T13:49:17.217Z,97943.66
2023-11-14T13:51:43.747Z,97948.47
2023-11-14T13:54:14.403Z,97945.94
2023-11-14T13:56:43.714Z,97947.84
2023-11-14T13:59:10.411Z,97953.91
2023-11-14T14:01:37.356Z,97941.13
2023-11-14T14:04:04.341Z,97951.81
2023-11-14T14:06:30.937Z,97932.19
2023-11-14T14:08:59.265Z,97947.00
2023-11-14T14:11:27.449Z,97948.03
2023-11-14T14:13:54.161Z,97946.41
2023-11-14T14:16:20.743Z,97946.78
2023-11-14T14:18:47.460Z,97948.47
2023-11-14T14:21:15.256Z,97953.28
2023-11-14T14:23:42.489Z,97947.22
2023-11-14T14:26:10.437Z,97938.63
2023-11-14T14:28:40.266Z,97936.78
2023-11-14T14:31:08.932Z,97938.84
2023-11-14T14:33:36.463Z,97937.59
2023-11-14T14:36:04.099Z,97940.72
2023-11-14T14:38:30.807Z,97955.97
2023-11-14T14:40:57.459Z,97951.19
2023-11-14T14:43:30.291Z,97947.63
2023-11-14T14:45:57.747Z,97941.78
2023-11-14T14:48:24.513Z,97939.66
2023-11-14T14:50:55.189Z,97931.50
2023-11-14T14:53:24.162Z,97937.56
2023-11-14T14:55:51.387Z,97928.81
2023-11-14T14:58:20.381Z,97932.78
2023-11-14T15:00:47.606Z,97921.69
2023-11-14T15:03:21.406Z,97919.41
2023-11-14T15:05:51.156Z,97926.09
2023-11-14T15:08:18.063Z,97903.94
2023-11-14T15:10:45.503Z,97922.53
2023-11-14T15:13:12.494Z,97920.03
2023-11-14T15:15:41.032Z,97915.00
2023-11-14T15:18:07.833Z,97902.28
2023-11-14T15:20:34.663Z,97912.91
2023-11-14T15:23:02.519Z,97908.72
2023-11-14T15:25:31.155Z,97908.72
2023-11-14T15:27:58.000Z,97909.75
2023-11-14T15:30:24.671Z,97910.78
2023-11-14T15:32:51.421Z,97911.41
2023-11-14T15:35:17.991Z,97918.47
2023-11-14T15:37:44.599Z,97909.28
2023-11-14T15:40:12.578Z,97916.16
2023-11-14T15:42:42.363Z,97914.66
2023-11-14T15:45:09.386Z,97921.75
2023-11-14T15:47:36.092Z,97930.47
2023-11-14T15:50:03.589Z,97924.00
2023-11-14T15:52:30.163Z,97932.75
2023-11-14T15:54:59.142Z,97940.00
2023-11-14T15:57:27.436Z,97936.06
2023-11-14T15:59:54.796Z,97946.47
2023-11-14T16:02:21.548Z,97941.03
2023-11-14T16:04:49.063Z,97943.75
2023-11-14T16:07:15.700Z,97954.81
2023-11-14T16:09:42.602Z,97957.31
2023-11-14T16:12:09.641Z,97957.31
2023-11-14T16:14:36.611Z,97953.50
2023-11-14T16:17:04.809Z,97946.41
2023-11-14T16:19:37.739Z,97947.66
2023-11-14T16:22:05.519Z,97950.13
2023-11-14T16:24:32.424Z,97946.56
2023-11-14T16:26:59.832Z,97944.31
2023-11-14T16:29:26.698Z,97950.09
2023-11-14T16:31:53.445Z,97944.28
2023-11-14T16:34:20.044Z,97934.19
2023-11-14T16:36:46.566Z,97926.94
2023-11-14T16:39:13.298Z,97929.69
2023-11-14T16:41:39.998Z,97934.03
2023-11-14T16:44:06.777Z,97935.13
2023-11-14T16:46:33.646Z,97934.78
2023-11-14T16:49:00.822Z,97931.88
2023-11-14T16:51:32.079Z,97939.00
2023-11-14T16:54:00.950Z,97945.47
2023-11-14T16:56:27.874Z,97937.34
2023-11-14T16:58:54.899Z,97947.00
2023-11-14T17:01:22.173Z,97942.00
2023-11-14T17:03:49.061Z,97938.06
2023-11-14T17:06:15.981Z,97924.72
2023-11-14T17:08:42.545Z,97944.75
2023-11-14T17:11:09.218Z,97945.41
2023-11-14T17:13:36.251Z,97936.84
2023-11-14T17:16:04.508Z,97938.06
2023-11-14T17:18:31.360Z,97938.31
2023-11-14T17:20:57.955Z,97928.69
2023-11-14T17:25:51.608Z,97915.78
2023-11-14T17:28:18.129Z,97921.22
2023-11-14T17:30:44.689Z,97914.31
2023-11-14T17:33:11.280Z,97912.84
2023-11-14T17:35:37.957Z,97917.47
2023-11-14T17:38:05.627Z,97907.25
2023-11-14T17:40:32.149Z,97903.91
2023-11-14T17:42:58.657Z,97905.59
2023-11-14T17:45:25.441Z,97894.31
2023-11-14T17:47:52.185Z,97897.47
2023-11-14T17:50:18.942Z,97894.13
2023-11-14T17:52:45.499Z,97889.91
2023-11-14T17:55:13.838Z,97890.94
2023-11-14T17:57:41.745Z,97897.81
2023-11-14T18:00:09.491Z,97898.66
2023-11-14T18:02:38.866Z,97898.22
2023-11-14T18:05:06.781Z,97893.22
2023-11-14T18:07:33.435Z,97903.03
2023-11-14T18:09:59.973Z,97896.56
2023-11-14T18:12:26.552Z,97889.03
2023-11-14T18:14:53.029Z,97890.28
2023-11-14T18:17:20.280Z,97883.25
2023-11-14T18:19:46.920Z,97879.28
2023-11-14T18:22:13.528Z,97876.94
2023-11-14T18:24:41.686Z,97874.66
2023-11-14T18:27:08.212Z,97874.47
2023-11-14T18:29:34.810Z,97868.59
2023-11-14T18:32:01.535Z,97878.66
2023-11-14T18:34:28.296Z,97874.06
2023-11-14T18:36:54.883Z,97873.03
2023-11-14T18:39:21.410Z,97858.44
2023-11-14T18:41:47.948Z,97855.72
2023-11-14T18:44:14.951Z,97853.84
2023-11-14T18:46:42.997Z,97846.50
2023-11-14T18:49:09.707Z,97842.13
2023-11-14T18:51:36.325Z,97838.38
2023-11-14T18:54:03.019Z,97847.16
2023-11-14T18:56:30.708Z,97848.19
2023-11-14T18:58:57.672Z,97848.19
2023-11-14T19:01:24.434Z,97856.34
2023-11-14T19:03:51.608Z,97841.09
2023-11-14T19:06:18.368Z,97844.03
2023-11-14T19:08:45.438Z,97841.94
2023-11-14T19:11:12.037Z,97849.03
2023-11-14T19:13:38.669Z,97844.25
2023-11-14T19:16:05.640Z,97849.66
2023-11-14T19:18:33.323Z,97852.38
2023-11-14T19:21:36.022Z,97846.97
2023-11-14T19:23:46.838Z,97846.75
2023-11-14T19:26:13.578Z,97836.09
2023-11-14T19:28:43.573Z,97838.63
2023-11-14T19:31:10.304Z,97835.06
2023-11-14T19:33:36.914Z,97833.59
2023-11-14T19:36:03.944Z,97835.06
2023-11-14T19:38:32.010Z,97831.09
2023-11-14T19:40:59.768Z,97827.78
2023-11-14T19:43:26.388Z,97824.00
2023-11-14T19:45:54.213Z,97827.13
2023-11-14T19:48:21.582Z,97817.75
2023-11-14T19:50:48.747Z,97812.94
2023-11-14T19:53:15.888Z,97815.88
2023-11-14T19:55:42.930Z,97820.25
2023-11-14T19:58:09.793Z,97811.06
2023-11-14T20:00:37.308Z,97803.53
2023-11-14T20:03:05.001Z,97805.84
2023-11-14T20:05:33.298Z,97815.84
2023-11-14T20:07:59.992Z,97812.31
2023-11-14T20:10:26.571Z,97807.50
2023-11-14T20:12:53.187Z,97812.31
2023-11-14T20:15:19.764Z,97813.16
2023-11-14T20:17:46.606Z,97817.53
2023-11-14T20:20:13.812Z,97811.50
2023-11-14T20:22:41.026Z,97809.19
2023-11-14T20:25:08.201Z,97807.94
2023-11-14T20:27:34.970Z,97808.97
2023-11-14T20:30:05.204Z,97812.31
2023-11-14T20:32:32.223Z,97811.69
2023-11-14T20:34:58.858Z,97804.19
2023-11-14T20:37:25.502Z,97801.66
2023-11-14T20:39:52.965Z,97805.19
2023-11-14T20:42:22.317Z,97805.59
2023-11-14T20:44:49.014Z,97794.28
2023-11-14T20:47:15.633Z,97796.97
2023-11-14T20:49:42.171Z,97797.13
2023-11-14T20:52:09.079Z,97802.75
2023-11-14T20:54:35.898Z,97800.84
2023-11-14T20:57:02.906Z,97805.41
2023-11-14T20:59:29.462Z,97804.91
2023-11-14T21:01:57.019Z,97815.09
2023-11-14T21:04:23.839Z,97814.03
2023-11-14T21:06:52.477Z,97808.13
2023-11-14T21:09:19.076Z,97813.31
2023-11-14T21:11:45.791Z,97816.00
2023-11-14T21:14:12.552Z,97815.16
2023-11-14T21:16:39.571Z,97811.13
2023-11-14T21:19:06.250Z,97811.59
2023-11-14T21:21:32.837Z,97808.00
2023-11-14T21:23:59.971Z,97823.38
2023-11-14T21:26:28.858Z,97811.88
2023-11-14T21:28:55.719Z,97817.69
2023-11-14T21:31:27.466Z,97820.00
2023-11-14T21:33:54.130Z,97817.88
2023-11-14T21:36:20.669Z,97823.50
2023-11-14T21:38:47.455Z,97820.56
2023-11-14T21:41:14.040Z,97820.34
2023-11-14T21:43:40.628Z,97815.53
2023-11-14T21:46:07.292Z,97807.44
2023-11-14T21:48:35.011Z,97811.16
2023-11-14T21:51:01.846Z,97806.75
2023-11-14T21:53:30.612Z,97814.28
2023-11-14T21:56:00.072Z,97808.19
2023-11-14T21:58:26.613Z,97809.88
2023-11-14T22:00:53.453Z,97808.97
2023-11-14T22:03:20.213Z,97806.66
2023-11-14T22:05:47.013Z,97807.31
2023-11-14T22:08:13.634Z,97809.81
2023-11-14T22:10:40.175Z,97797.47
2023-11-14T22:13:06.956Z,97805.00
2023-11-14T22:15:33.515Z,97803.47
2023-11-14T22:18:00.106Z,97803.25
2023-11-14T22:20:26.664Z,97808.84
2023-11-14T22:22:53.281Z,97805.94
2023-11-14T22:25:19.786Z,97802.97
2023-11-14T22:27:46.358Z,97806.97
2023-11-14T22:30:13.500Z,97810.03
2023-11-14T22:32:40.354Z,97797.91
2023-11-14T22:35:07.688Z,97799.50
2023-11-14T22:37:34.417Z,97797.25
2023-11-14T22:40:01.005Z,97798.03
2023-11-14T22:42:27.553Z,97797.19
2023-11-14T22:44:55.109Z,97802.59
2023-11-14T22:47:21.801Z,97804.66
2023-11-14T22:49:48.412Z,97807.81
2023-11-14T22:52:14.970Z,97802.59
2023-11-14T22:54:42.219Z,97802.78
2023-11-14T22:57:09.163Z,97810.84
2023-11-14T22:59:35.740Z,97808.13
2023-11-14T23:02:02.343Z,97803.56
2023-11-14T23:04:28.848Z,97798.75
2023-11-14T23:06:55.926Z,97798.75
2023-11-14T23:09:24.459Z,97798.16
2023-11-14T23:11:56.451Z,97801.25
2023-11-14T23:14:24.540Z,97787.69
2023-11-14T23:16:51.573Z,97797.25
2023-11-14T23:19:18.257Z,97792.88
2023-11-14T23:21:52.147Z,97791.13
2023-11-14T23:24:21.911Z,97795.69
2023-11-14T23:26:48.676Z,97795.69
2023-11-14T23:29:15.315Z,97788.38
2023-11-14T23:31:41.860Z,97794.72
2023-11-14T23:34:08.442Z,97785.59
2023-11-14T23:36:34.974Z,97789.22
2023-11-14T23:39:01.553Z,97786.88
2023-11-14T23:41:28.973Z,97786.88
2023-11-14T23:43:56.238Z,97772.19
2023-11-14T23:46:24.156Z,97781.94
2023-11-14T23:48:51.712Z,97757.50
2023-11-14T23:51:19.143Z,97769.78
2023-11-14T23:53:45.967Z,97755.84
2023-11-14T23:56:13.749Z,97754.34
2023-11-14T23:58:40.467Z,97750.81
